createdAt,value
2023-04-16T00:00:05.575Z,32.15
2023-04-16T00:01:07.491Z,32.31
2023-04-16T00:02:09.719Z,32.28
2023-04-16T00:03:12.157Z,32.11
2023-04-16T00:04:14.329Z,32.24
2023-04-16T00:05:16.611Z,32.05
2023-04-16T00:06:18.739Z,32.33
2023-04-16T00:07:21.005Z,32.15
2023-04-16T00:08:26.910Z,32.07
2023-04-16T00:09:28.785Z,32.08
2023-04-16T00:10:31.037Z,32.03
2023-04-16T00:11:32.910Z,31.79
2023-04-16T00:12:35.045Z,32.05
2023-04-16T00:13:37.758Z,32.21
2023-04-16T00:14:39.876Z,32.04
2023-04-16T00:15:41.838Z,32.09
2023-04-16T00:16:43.720Z,32.24
2023-04-16T00:17:46.014Z,32.12
2023-04-16T00:18:48.259Z,32.45
2023-04-16T00:19:50.502Z,32.10
2023-04-16T00:20:53.745Z,32.34
2023-04-16T00:21:55.985Z,32.27
2023-04-16T00:22:58.245Z,32.15
2023-04-16T00:24:00.288Z,32.36
2023-04-16T00:25:02.283Z,32.25
2023-04-16T00:26:04.613Z,32.51
2023-04-16T00:27:06.927Z,32.42
2023-04-16T00:28:10.679Z,32.38
2023-04-16T00:29:13.204Z,32.45
2023-04-16T00:30:15.402Z,32.69
2023-04-16T00:31:17.630Z,32.63
2023-04-16T00:32:19.872Z,32.63
2023-04-16T00:33:22.570Z,32.70
2023-04-16T00:34:24.492Z,32.37
2023-04-16T00:35:26.754Z,32.62
2023-04-16T00:36:29.388Z,32.53
2023-04-16T00:37:31.328Z,32.67
2023-04-16T00:38:33.352Z,32.62
2023-04-16T00:39:35.348Z,32.60
2023-04-16T00:40:37.834Z,33.03
2023-04-16T00:41:39.782Z,32.51
2023-04-16T00:42:42.016Z,32.56
2023-04-16T00:43:44.240Z,32.79
2023-04-16T00:44:46.213Z,32.56
2023-04-16T00:45:48.328Z,32.45
2023-04-16T00:46:51.387Z,32.73
2023-04-16T00:47:53.333Z,32.58
2023-04-16T00:48:56.518Z,32.53
2023-04-16T00:49:58.544Z,32.74
2023-04-16T00:51:01.740Z,32.53
2023-04-16T00:52:04.020Z,32.54
2023-04-16T00:53:06.215Z,32.50
2023-04-16T00:54:08.056Z,32.63
2023-04-16T00:55:13.826Z,32.42
2023-04-16T00:56:17.657Z,32.33
2023-04-16T00:57:21.430Z,32.61
2023-04-16T00:58:24.024Z,32.29
2023-04-16T00:59:27.666Z,32.25
2023-04-16T01:00:29.954Z,32.65
2023-04-16T01:01:31.870Z,32.47
2023-04-16T01:02:34.700Z,32.50
2023-04-16T01:03:43.763Z,32.35
2023-04-16T01:04:46.398Z,32.40
2023-04-16T01:05:49.441Z,32.71
2023-04-16T01:06:51.294Z,32.54
2023-04-16T01:07:53.666Z,32.61
2023-04-16T01:08:55.896Z,32.44
2023-04-16T01:09:58.368Z,32.28
2023-04-16T01:11:00.397Z,32.58
2023-04-16T01:12:02.315Z,32.52
2023-04-16T01:13:04.454Z,32.57
2023-04-16T01:14:06.485Z,32.38
2023-04-16T01:15:09.190Z,32.53
2023-04-16T01:16:12.971Z,32.52
2023-04-16T01:17:15.050Z,32.57
2023-04-16T01:18:19.683Z,32.52
2023-04-16T01:19:21.585Z,32.38
2023-04-16T01:20:23.552Z,32.26
2023-04-16T01:21:26.740Z,32.67
2023-04-16T01:22:29.338Z,32.54
2023-04-16T01:23:32.084Z,32.23
2023-04-16T01:24:35.056Z,32.36
2023-04-16T01:25:36.986Z,32.61
2023-04-16T01:26:39.074Z,32.30
2023-04-16T01:27:41.215Z,32.52
2023-04-16T01:28:43.774Z,32.42
2023-04-16T01:29:47.258Z,32.47
2023-04-16T01:30:49.231Z,32.48
2023-04-16T01:31:51.246Z,32.43
2023-04-16T01:32:53.310Z,32.39
2023-04-16T01:33:55.255Z,32.20
2023-04-16T01:34:57.116Z,32.33
2023-04-16T01:35:58.960Z,32.39
2023-04-16T01:37:00.883Z,32.50
2023-04-16T01:38:04.137Z,32.49
2023-04-16T01:39:06.313Z,32.41
2023-04-16T01:40:08.879Z,32.07
2023-04-16T01:41:10.698Z,32.35
2023-04-16T01:42:12.670Z,32.40
2023-04-16T01:43:14.600Z,32.06
2023-04-16T01:44:16.591Z,32.31
2023-04-16T01:45:18.758Z,32.13
2023-04-16T01:46:33.561Z,32.21
2023-04-16T01:47:36.011Z,32.34
2023-04-16T01:48:38.351Z,32.37
2023-04-16T01:49:40.962Z,32.09
2023-04-16T01:50:42.903Z,32.46
2023-04-16T01:51:45.046Z,31.95
2023-04-16T01:52:47.509Z,32.11
2023-04-16T01:53:50.608Z,32.26
2023-04-16T01:54:52.623Z,32.31
2023-04-16T01:55:54.592Z,32.18
2023-04-16T01:56:57.097Z,32.16
2023-04-16T01:57:58.899Z,32.21
2023-04-16T01:59:00.787Z,32.14
2023-04-16T02:00:04.027Z,32.56
2023-04-16T02:01:06.134Z,32.86
2023-04-16T02:02:11.633Z,32.22
2023-04-16T02:03:13.794Z,32.37
2023-04-16T02:04:15.928Z,32.03
2023-04-16T02:05:18.367Z,32.23
2023-04-16T02:06:20.774Z,32.38
2023-04-16T02:07:22.630Z,32.19
2023-04-16T02:08:24.836Z,32.11
2023-04-16T02:09:26.672Z,32.25
2023-04-16T02:10:28.503Z,31.98
2023-04-16T02:11:30.317Z,32.21
2023-04-16T02:12:32.196Z,32.13
2023-04-16T02:13:34.143Z,32.08
2023-04-16T02:14:35.997Z,32.21
2023-04-16T02:15:37.977Z,32.05
2023-04-16T02:16:40.056Z,32.44
2023-04-16T02:17:41.986Z,32.08
2023-04-16T02:18:44.285Z,32.08
2023-04-16T02:19:46.348Z,32.23
2023-04-16T02:20:50.011Z,32.12
2023-04-16T02:21:53.529Z,31.99
2023-04-16T02:22:55.866Z,32.30
2023-04-16T02:23:57.793Z,32.03
2023-04-16T02:24:59.692Z,32.00
2023-04-16T02:26:03.987Z,32.00
2023-04-16T02:27:06.460Z,32.21
2023-04-16T02:28:11.989Z,32.08
2023-04-16T02:29:14.263Z,32.05
2023-04-16T02:30:16.856Z,32.24
2023-04-16T02:31:19.915Z,32.28
2023-04-16T02:32:22.682Z,31.94
2023-04-16T02:33:26.682Z,31.96
2023-04-16T02:34:28.640Z,32.20
2023-04-16T02:35:30.644Z,32.18
2023-04-16T02:36:33.160Z,32.30
2023-04-16T02:37:35.428Z,32.09
2023-04-16T02:38:37.853Z,32.19
2023-04-16T02:39:39.650Z,32.02
2023-04-16T02:40:41.819Z,31.99
2023-04-16T02:41:43.660Z,31.86
2023-04-16T02:42:45.496Z,32.06
2023-04-16T02:43:47.724Z,32.24
2023-04-16T02:44:49.890Z,32.01
2023-04-16T02:45:51.925Z,31.88
2023-04-16T02:46:53.800Z,32.17
2023-04-16T02:47:55.648Z,32.16
2023-04-16T02:48:57.625Z,32.12
2023-04-16T02:49:59.483Z,31.85
2023-04-16T02:51:01.476Z,32.00
2023-04-16T02:52:03.407Z,31.91
2023-04-16T02:53:06.599Z,32.13
2023-04-16T02:54:08.742Z,31.83
2023-04-16T02:55:11.738Z,31.90
2023-04-16T02:56:13.659Z,32.08
2023-04-16T02:57:15.676Z,31.84
2023-04-16T02:58:17.785Z,31.91
2023-04-16T02:59:19.672Z,32.20
2023-04-16T03:00:21.829Z,31.96
2023-04-16T03:01:23.727Z,32.00
2023-04-16T03:02:26.020Z,32.04
2023-04-16T03:03:28.138Z,31.99
2023-04-16T03:04:30.105Z,31.86
2023-04-16T03:05:32.275Z,31.88
2023-04-16T03:06:34.191Z,32.13
2023-04-16T03:07:36.143Z,32.24
2023-04-16T03:08:38.044Z,31.93
2023-04-16T03:09:40.565Z,32.03
2023-04-16T03:10:42.451Z,32.01
2023-04-16T03:11:44.370Z,31.79
2023-04-16T03:12:46.295Z,31.80
2023-04-16T03:13:48.659Z,31.93
2023-04-16T03:14:53.752Z,32.05
2023-04-16T03:15:55.997Z,31.86
2023-04-16T03:16:58.828Z,31.67
2023-04-16T03:18:01.442Z,31.85
2023-04-16T03:19:03.357Z,31.89
2023-04-16T03:20:06.565Z,31.83
2023-04-16T03:21:08.464Z,32.01
2023-04-16T03:22:10.533Z,32.04
2023-04-16T03:23:12.471Z,31.79
2023-04-16T03:24:14.542Z,32.09
2023-04-16T03:25:16.484Z,31.86
2023-04-16T03:26:18.338Z,32.20
2023-04-16T03:27:20.372Z,32.00
2023-04-16T03:28:22.291Z,32.00
2023-04-16T03:29:24.661Z,31.91
2023-04-16T03:30:26.922Z,32.04
2023-04-16T03:31:28.768Z,31.85
2023-04-16T03:32:31.141Z,31.91
2023-04-16T03:33:33.037Z,32.01
2023-04-16T03:34:36.858Z,31.87
2023-04-16T03:35:38.660Z,32.17
2023-04-16T03:36:40.984Z,32.11
2023-04-16T03:37:42.921Z,32.10
2023-04-16T03:38:44.791Z,32.00
2023-04-16T03:39:46.890Z,31.92
2023-04-16T03:40:48.965Z,31.97
2023-04-16T03:41:50.790Z,31.90
2023-04-16T03:42:52.627Z,31.99
2023-04-16T03:43:54.669Z,32.01
2023-04-16T03:44:57.322Z,31.85
2023-04-16T03:45:59.164Z,32.03
2023-04-16T03:47:01.206Z,31.91
2023-04-16T03:48:03.193Z,31.72
2023-04-16T03:49:05.243Z,32.08
2023-04-16T03:50:07.630Z,31.96
2023-04-16T03:51:09.486Z,32.27
2023-04-16T03:52:11.630Z,31.95
2023-04-16T03:53:14.031Z,31.89
2023-04-16T03:54:16.024Z,31.93
2023-04-16T03:55:17.910Z,32.00
2023-04-16T03:56:20.081Z,31.79
2023-04-16T03:57:22.135Z,31.85
2023-04-16T03:58:24.004Z,31.80
2023-04-16T03:59:26.052Z,31.94
2023-04-16T04:00:28.184Z,32.02
2023-04-16T04:01:30.515Z,31.98
2023-04-16T04:02:32.567Z,31.96
2023-04-16T04:03:34.979Z,31.98
2023-04-16T04:04:37.070Z,31.86
2023-04-16T04:05:43.041Z,31.97
2023-04-16T04:06:46.946Z,31.83
2023-04-16T04:07:48.789Z,31.86
2023-04-16T04:08:50.679Z,32.20
2023-04-16T04:09:52.791Z,32.00
2023-04-16T04:10:54.716Z,31.98
2023-04-16T04:11:56.525Z,31.95
2023-04-16T04:12:58.402Z,32.01
2023-04-16T04:14:00.405Z,32.05
2023-04-16T04:15:02.371Z,31.75
2023-04-16T04:16:06.046Z,32.02
2023-04-16T04:17:09.254Z,31.87
2023-04-16T04:18:11.163Z,31.57
2023-04-16T04:19:13.005Z,31.55
2023-04-16T04:20:14.909Z,31.84
2023-04-16T04:21:16.865Z,31.74
2023-04-16T04:22:19.034Z,32.17
2023-04-16T04:23:20.906Z,31.88
2023-04-16T04:24:22.738Z,31.80
2023-04-16T04:25:25.028Z,32.07
2023-04-16T04:26:26.922Z,31.93
2023-04-16T04:27:29.178Z,31.67
2023-04-16T04:28:34.408Z,31.79
2023-04-16T04:29:36.309Z,31.77
2023-04-16T04:30:38.470Z,31.95
2023-04-16T04:31:40.992Z,32.10
2023-04-16T04:32:43.346Z,31.82
2023-04-16T04:33:45.439Z,31.95
2023-04-16T04:34:47.327Z,31.84
2023-04-16T04:35:49.532Z,31.87
2023-04-16T04:36:51.421Z,32.00
2023-04-16T04:37:53.631Z,32.14
2023-04-16T04:38:55.493Z,31.85
2023-04-16T04:39:57.734Z,31.80
2023-04-16T04:40:59.849Z,31.72
2023-04-16T04:42:03.164Z,31.93
2023-04-16T04:43:05.125Z,32.01
2023-04-16T04:44:07.012Z,31.90
2023-04-16T04:45:10.060Z,31.81
2023-04-16T04:46:12.254Z,31.73
2023-04-16T04:47:15.705Z,32.14
2023-04-16T04:48:17.869Z,31.70
2023-04-16T04:49:20.017Z,31.92
2023-04-16T04:50:22.434Z,32.07
2023-04-16T04:51:24.437Z,32.02
2023-04-16T04:52:26.302Z,31.80
2023-04-16T04:53:28.126Z,32.09
2023-04-16T04:54:32.067Z,32.02
2023-04-16T04:55:33.899Z,31.67
2023-04-16T04:56:35.816Z,32.03
2023-04-16T04:57:37.640Z,32.11
2023-04-16T04:58:39.589Z,31.89
2023-04-16T04:59:41.416Z,31.92
2023-04-16T05:00:43.287Z,31.72
2023-04-16T05:01:45.407Z,32.15
2023-04-16T05:02:47.851Z,32.00
2023-04-16T05:03:49.980Z,31.93
2023-04-16T05:04:52.100Z,32.07
2023-04-16T05:05:54.426Z,31.88
2023-04-16T05:06:56.228Z,32.11
2023-04-16T05:07:58.142Z,31.80
2023-04-16T05:09:00.049Z,31.87
2023-04-16T05:10:02.026Z,31.97
2023-04-16T05:11:03.987Z,31.98
2023-04-16T05:12:06.288Z,32.00
2023-04-16T05:13:08.179Z,31.96
2023-04-16T05:14:10.082Z,31.58
2023-04-16T05:15:12.018Z,31.88
2023-04-16T05:16:13.999Z,31.98
2023-04-16T05:17:15.874Z,32.00
2023-04-16T05:18:17.717Z,32.14
2023-04-16T05:19:19.589Z,32.08
2023-04-16T05:20:23.388Z,32.00
2023-04-16T05:21:26.724Z,31.70
2023-04-16T05:22:28.836Z,32.13
2023-04-16T05:23:30.787Z,31.92
2023-04-16T05:24:32.755Z,31.71
2023-04-16T05:25:34.897Z,31.96
2023-04-16T05:26:36.813Z,31.74
2023-04-16T05:27:38.946Z,31.58
2023-04-16T05:28:41.161Z,31.77
2023-04-16T05:29:43.285Z,31.91
2023-04-16T05:30:45.238Z,31.92
2023-04-16T05:31:47.058Z,31.78
2023-04-16T05:32:49.015Z,32.17
2023-04-16T05:33:50.865Z,32.02
2023-04-16T05:34:52.989Z,32.04
2023-04-16T05:35:54.872Z,32.08
2023-04-16T05:36:56.786Z,32.04
2023-04-16T05:37:58.723Z,31.92
2023-04-16T05:39:00.697Z,32.10
2023-04-16T05:40:02.736Z,31.83
2023-04-16T05:41:06.461Z,31.72
2023-04-16T05:42:08.694Z,32.18
2023-04-16T05:43:11.048Z,31.81
2023-04-16T05:44:13.276Z,32.15
2023-04-16T05:45:15.362Z,31.85
2023-04-16T05:46:17.534Z,31.73
2023-04-16T05:47:19.813Z,32.13
2023-04-16T05:48:21.725Z,32.05
2023-04-16T05:49:23.669Z,32.14
2023-04-16T05:50:25.656Z,32.01
2023-04-16T05:51:28.044Z,32.28
2023-04-16T05:52:30.355Z,32.06
2023-04-16T05:53:32.204Z,32.03
2023-04-16T05:54:34.181Z,32.37
2023-04-16T05:55:39.292Z,32.32
2023-04-16T05:56:41.273Z,31.84
2023-04-16T05:57:43.114Z,32.08
2023-04-16T05:58:45.276Z,32.37
2023-04-16T05:59:47.427Z,32.44
2023-04-16T06:00:49.600Z,32.28
2023-04-16T06:01:51.512Z,32.38
2023-04-16T06:02:53.716Z,32.17
2023-04-16T06:03:55.945Z,32.22
2023-04-16T06:04:57.903Z,32.26
2023-04-16T06:06:00.319Z,32.53
2023-04-16T06:07:02.554Z,32.39
2023-04-16T06:08:04.736Z,32.45
2023-04-16T06:09:06.998Z,32.72
2023-04-16T06:10:09.495Z,32.62
2023-04-16T06:11:11.611Z,32.60
2023-04-16T06:12:13.794Z,32.49
2023-04-16T06:13:15.775Z,32.53
2023-04-16T06:14:17.988Z,32.92
2023-04-16T06:15:20.316Z,32.45
2023-04-16T06:16:22.436Z,32.51
2023-04-16T06:17:24.422Z,32.81
2023-04-16T06:18:26.472Z,32.87
2023-04-16T06:19:28.658Z,32.74
2023-04-16T06:20:31.253Z,32.72
2023-04-16T06:21:33.549Z,32.96
2023-04-16T06:22:35.568Z,32.60
2023-04-16T06:23:37.429Z,33.03
2023-04-16T06:24:39.478Z,32.37
2023-04-16T06:25:41.542Z,32.54
2023-04-16T06:26:43.736Z,32.90
2023-04-16T06:27:45.824Z,33.15
2023-04-16T06:28:48.108Z,32.51
2023-04-16T06:29:50.853Z,32.74
2023-04-16T06:30:52.981Z,32.44
2023-04-16T06:31:55.648Z,32.16
2023-04-16T06:32:57.675Z,32.30
2023-04-16T06:33:59.674Z,32.16
2023-04-16T06:35:02.077Z,32.35
2023-04-16T06:36:04.382Z,32.34
2023-04-16T06:37:10.360Z,32.31
2023-04-16T06:38:12.615Z,31.94
2023-04-16T06:39:14.519Z,32.23
2023-04-16T06:40:16.562Z,32.52
2023-04-16T06:41:18.570Z,32.07
2023-04-16T06:42:20.900Z,32.22
2023-04-16T06:43:23.185Z,32.44
2023-04-16T06:44:25.515Z,32.39
2023-04-16T06:45:27.387Z,32.09
2023-04-16T06:46:29.300Z,32.46
2023-04-16T06:47:31.318Z,32.45
2023-04-16T06:48:33.507Z,32.63
2023-04-16T06:49:35.576Z,32.44
2023-04-16T06:50:37.764Z,32.57
2023-04-16T06:51:39.722Z,32.62
2023-04-16T06:52:41.692Z,32.34
2023-04-16T06:53:44.112Z,32.39
2023-04-16T06:54:46.047Z,32.20
2023-04-16T06:55:47.858Z,32.26
2023-04-16T06:56:50.194Z,32.19
2023-04-16T06:57:52.288Z,32.30
2023-04-16T06:58:54.751Z,32.14
2023-04-16T06:59:56.927Z,32.24
2023-04-16T07:00:59.777Z,32.36
2023-04-16T07:02:02.005Z,32.30
2023-04-16T07:03:04.159Z,32.29
2023-04-16T07:04:06.557Z,32.45
2023-04-16T07:05:09.116Z,32.16
2023-04-16T07:06:11.773Z,32.92
2023-04-16T07:07:14.167Z,32.79
2023-04-16T07:08:16.444Z,32.89
2023-04-16T07:09:18.792Z,32.98
2023-04-16T07:10:21.272Z,32.64
2023-04-16T07:11:23.842Z,32.80
2023-04-16T07:12:27.190Z,32.90
2023-04-16T07:13:29.808Z,32.71
2023-04-16T07:14:32.178Z,32.72
2023-04-16T07:15:34.813Z,32.83
2023-04-16T07:16:38.202Z,32.85
2023-04-16T07:17:40.691Z,32.85
2023-04-16T07:18:43.362Z,32.82
2023-04-16T07:19:46.254Z,32.96
2023-04-16T07:20:49.103Z,32.91
2023-04-16T07:21:52.245Z,32.63
2023-04-16T07:22:54.947Z,32.91
2023-04-16T07:23:57.212Z,32.50
2023-04-16T07:24:59.668Z,32.82
2023-04-16T07:26:01.972Z,32.62
2023-04-16T07:27:04.313Z,32.93
2023-04-16T07:28:06.757Z,32.61
2023-04-16T07:29:09.486Z,33.00
2023-04-16T07:30:12.246Z,33.06
2023-04-16T07:31:14.603Z,33.02
2023-04-16T07:32:17.505Z,32.86
2023-04-16T07:33:19.810Z,32.58
2023-04-16T07:34:22.474Z,32.90
2023-04-16T07:35:24.790Z,32.92
2023-04-16T07:36:28.451Z,32.77
2023-04-16T07:37:31.007Z,32.81
2023-04-16T07:38:34.760Z,32.78
2023-04-16T07:39:37.116Z,32.60
2023-04-16T07:40:39.419Z,32.68
2023-04-16T07:41:42.047Z,32.76
2023-04-16T07:42:44.686Z,32.71
2023-04-16T07:43:47.093Z,32.69
2023-04-16T07:44:49.399Z,32.85
2023-04-16T07:45:52.140Z,32.97
2023-04-16T07:46:54.799Z,32.96
2023-04-16T07:47:57.957Z,33.09
2023-04-16T07:49:00.518Z,32.96
2023-04-16T07:50:03.043Z,33.16
2023-04-16T07:51:05.524Z,33.15
2023-04-16T07:52:08.232Z,33.18
2023-04-16T07:53:11.001Z,33.31
2023-04-16T07:54:13.348Z,33.29
2023-04-16T07:55:15.932Z,33.11
2023-04-16T07:56:18.534Z,33.05
2023-04-16T07:57:21.606Z,33.33
2023-04-16T07:58:24.257Z,33.37
2023-04-16T07:59:26.794Z,33.05
2023-04-16T08:00:30.324Z,33.03
2023-04-16T08:01:32.858Z,32.94
2023-04-16T08:02:35.550Z,33.25
2023-04-16T08:03:38.260Z,32.98
2023-04-16T08:04:42.432Z,33.00
2023-04-16T08:05:45.042Z,33.26
2023-04-16T08:06:47.695Z,33.04
2023-04-16T08:07:50.221Z,33.10
2023-04-16T08:08:52.869Z,33.33
2023-04-16T08:09:55.679Z,32.97
2023-04-16T08:10:58.172Z,33.00
2023-04-16T08:12:01.496Z,33.15
2023-04-16T08:13:06.844Z,33.05
2023-04-16T08:14:09.372Z,33.02
2023-04-16T08:15:11.967Z,33.00
2023-04-16T08:16:14.537Z,32.92
2023-04-16T08:17:16.963Z,32.65
2023-04-16T08:18:20.030Z,32.98
2023-04-16T08:19:22.418Z,32.80
2023-04-16T08:20:25.032Z,32.95
2023-04-16T08:21:28.207Z,33.02
2023-04-16T08:22:30.858Z,32.94
2023-04-16T08:23:33.811Z,33.13
2023-04-16T08:24:36.418Z,33.03
2023-04-16T08:25:39.062Z,33.14
2023-04-16T08:26:41.737Z,33.03
2023-04-16T08:27:44.298Z,32.96
2023-04-16T08:28:46.751Z,33.18
2023-04-16T08:29:49.259Z,32.98
2023-04-16T08:30:51.777Z,33.00
2023-04-16T08:31:54.886Z,32.95
2023-04-16T08:32:57.715Z,33.06
2023-04-16T08:34:01.001Z,33.11
2023-04-16T08:35:03.560Z,33.01
2023-04-16T08:36:06.391Z,33.18
2023-04-16T08:37:08.989Z,33.08
2023-04-16T08:38:11.343Z,33.08
2023-04-16T08:39:13.778Z,33.24
2023-04-16T08:40:16.514Z,32.99
2023-04-16T08:41:21.987Z,32.99
2023-04-16T08:42:37.520Z,32.97
2023-04-16T08:43:44.809Z,33.15
2023-04-16T08:44:52.443Z,33.29
2023-04-16T08:45:57.381Z,33.12
2023-04-16T08:47:00.631Z,33.19
2023-04-16T08:48:06.874Z,33.08
2023-04-16T08:49:13.851Z,32.99
2023-04-16T08:50:17.580Z,33.12
2023-04-16T08:51:22.444Z,33.22
2023-04-16T08:52:26.150Z,33.07
2023-04-16T08:53:42.443Z,33.42
2023-04-16T08:55:01.115Z,33.00
2023-04-16T08:56:05.705Z,33.18
2023-04-16T08:57:12.103Z,33.20
2023-04-16T08:58:18.845Z,33.29
2023-04-16T08:59:22.398Z,33.19
2023-04-16T09:00:25.025Z,33.13
2023-04-16T09:01:27.740Z,33.32
2023-04-16T09:02:31.452Z,33.28
2023-04-16T09:03:36.506Z,33.44
2023-04-16T09:04:39.886Z,33.13
2023-04-16T09:05:44.030Z,33.04
2023-04-16T09:06:48.241Z,32.87
2023-04-16T09:07:52.511Z,32.70
2023-04-16T09:08:58.146Z,32.45
2023-04-16T09:10:01.910Z,32.49
2023-04-16T09:11:04.466Z,32.39
2023-04-16T09:12:07.932Z,32.77
2023-04-16T09:13:13.441Z,32.64
2023-04-16T09:14:16.059Z,32.81
2023-04-16T09:15:20.747Z,32.85
2023-04-16T09:16:23.715Z,32.98
2023-04-16T09:17:26.584Z,32.96
2023-04-16T09:18:29.327Z,33.28
2023-04-16T09:19:31.610Z,33.04
2023-04-16T09:20:34.605Z,33.16
2023-04-16T09:21:37.257Z,33.43
2023-04-16T09:22:40.517Z,33.27
2023-04-16T09:23:43.775Z,33.33
2023-04-16T09:24:46.228Z,33.25
2023-04-16T09:25:48.507Z,33.27
2023-04-16T09:26:52.922Z,33.34
2023-04-16T09:27:55.601Z,33.48
2023-04-16T09:28:58.326Z,33.52
2023-04-16T09:30:00.925Z,33.31
2023-04-16T09:31:14.928Z,33.52
2023-04-16T09:32:17.433Z,33.29
2023-04-16T09:33:24.473Z,33.43
2023-04-16T09:34:27.116Z,33.43
2023-04-16T09:35:49.601Z,33.31
2023-04-16T09:36:52.121Z,33.43
2023-04-16T09:37:58.455Z,33.37
2023-04-16T09:39:01.488Z,33.29
2023-04-16T09:40:05.076Z,33.54
2023-04-16T09:41:08.614Z,33.54
2023-04-16T09:42:11.882Z,33.58
2023-04-16T09:43:18.946Z,33.48
2023-04-16T09:44:21.299Z,33.39
2023-04-16T09:45:23.797Z,33.46
2023-04-16T09:46:36.196Z,33.45
2023-04-16T09:47:43.790Z,33.44
2023-04-16T09:48:47.424Z,33.52
2023-04-16T09:49:50.483Z,33.47
2023-04-16T09:50:52.736Z,33.45
2023-04-16T09:51:56.359Z,33.67
2023-04-16T09:53:03.655Z,33.64
2023-04-16T09:54:07.960Z,33.55
2023-04-16T09:55:10.547Z,33.53
2023-04-16T09:56:13.806Z,33.67
2023-04-16T09:57:23.251Z,33.70
2023-04-16T09:58:26.128Z,33.62
2023-04-16T09:59:33.987Z,33.65
2023-04-16T10:00:36.253Z,33.64
2023-04-16T10:01:47.210Z,33.45
2023-04-16T10:02:50.823Z,33.83
2023-04-16T10:03:58.155Z,33.56
2023-04-16T10:05:05.825Z,33.69
2023-04-16T10:06:22.364Z,33.69
2023-04-16T10:07:29.406Z,33.73
2023-04-16T10:08:31.993Z,33.55
2023-04-16T10:09:39.278Z,33.83
2023-04-16T10:10:42.049Z,33.94
2023-04-16T10:11:44.836Z,33.65
2023-04-16T10:12:47.172Z,33.85
2023-04-16T10:13:49.861Z,33.71
2023-04-16T10:14:52.285Z,33.82
2023-04-16T10:15:57.373Z,33.62
2023-04-16T10:17:00.307Z,33.79
2023-04-16T10:18:03.720Z,33.79
2023-04-16T10:19:06.100Z,33.73
2023-04-16T10:20:09.344Z,33.91
2023-04-16T10:21:13.126Z,33.67
2023-04-16T10:22:16.592Z,33.78
2023-04-16T10:23:21.371Z,33.77
2023-04-16T10:24:24.966Z,33.87
2023-04-16T10:25:27.951Z,33.83
2023-04-16T10:26:31.387Z,33.64
2023-04-16T10:27:34.115Z,33.73
2023-04-16T10:28:36.858Z,33.74
2023-04-16T10:29:39.960Z,33.77
2023-04-16T10:30:52.687Z,33.76
2023-04-16T10:31:57.235Z,33.67
2023-04-16T10:33:00.762Z,33.66
2023-04-16T10:34:04.761Z,33.66
2023-04-16T10:35:07.463Z,33.60
2023-04-16T10:36:12.765Z,33.88
2023-04-16T10:37:18.333Z,33.86
2023-04-16T10:38:26.948Z,33.72
2023-04-16T10:39:29.838Z,33.77
2023-04-16T10:40:32.559Z,33.61
2023-04-16T10:41:34.854Z,33.71
2023-04-16T10:42:39.294Z,33.89
2023-04-16T10:43:46.578Z,33.66
2023-04-16T10:44:48.981Z,33.73
2023-04-16T10:45:51.296Z,33.68
2023-04-16T10:46:55.877Z,33.82
2023-04-16T10:47:59.156Z,33.68
2023-04-16T10:49:12.370Z,33.75
2023-04-16T10:50:17.517Z,33.86
2023-04-16T10:51:29.502Z,33.58
2023-04-16T10:52:31.789Z,33.61
2023-04-16T10:53:37.180Z,33.70
2023-04-16T10:54:41.018Z,33.59
2023-04-16T10:56:02.684Z,33.65
2023-04-16T10:57:07.298Z,33.77
2023-04-16T10:58:31.529Z,33.59
2023-04-16T10:59:35.654Z,33.57
2023-04-16T11:00:54.219Z,33.76
2023-04-16T11:01:59.339Z,33.61
2023-04-16T11:03:02.376Z,33.75
2023-04-16T11:04:25.777Z,33.74
2023-04-16T11:05:47.119Z,33.84
2023-04-16T11:07:18.812Z,33.55
2023-04-16T11:08:21.425Z,33.70
2023-04-16T11:09:49.780Z,33.71
2023-04-16T11:10:52.359Z,33.61
2023-04-16T11:11:56.909Z,33.75
2023-04-16T11:13:00.372Z,33.75
2023-04-16T11:14:06.882Z,33.87
2023-04-16T11:15:10.712Z,33.79
2023-04-16T11:16:17.495Z,33.75
2023-04-16T11:17:21.307Z,33.92
2023-04-16T11:18:24.250Z,33.87
2023-04-16T11:19:27.054Z,33.89
2023-04-16T11:20:29.652Z,33.74
2023-04-16T11:21:32.862Z,33.78
2023-04-16T11:22:38.564Z,33.92
2023-04-16T11:23:49.129Z,33.70
2023-04-16T11:24:56.716Z,33.86
2023-04-16T11:25:59.529Z,33.84
2023-04-16T11:27:02.080Z,34.00
2023-04-16T11:28:04.373Z,33.76
2023-04-16T11:29:15.804Z,33.79
2023-04-16T11:30:19.502Z,33.78
2023-04-16T11:31:23.398Z,33.94
2023-04-16T11:32:26.243Z,33.92
2023-04-16T11:33:31.448Z,33.92
2023-04-16T11:34:33.835Z,34.02
2023-04-16T11:35:36.532Z,33.87
2023-04-16T11:36:49.988Z,33.90
2023-04-16T11:37:57.125Z,33.91
2023-04-16T11:39:04.386Z,33.98
2023-04-16T11:40:08.390Z,33.84
2023-04-16T11:41:11.173Z,33.98
2023-04-16T11:42:21.331Z,33.92
2023-04-16T11:43:23.987Z,33.68
2023-04-16T11:44:27.963Z,34.01
2023-04-16T11:45:30.344Z,33.98
2023-04-16T11:46:40.552Z,33.98
2023-04-16T11:47:51.776Z,33.85
2023-04-16T11:48:56.091Z,33.83
2023-04-16T11:50:18.453Z,33.70
2023-04-16T11:51:23.331Z,33.45
2023-04-16T11:52:27.488Z,33.74
2023-04-16T11:53:29.757Z,33.78
2023-04-16T11:54:34.817Z,33.97
2023-04-16T11:55:46.983Z,33.98
2023-04-16T11:56:51.033Z,33.76
2023-04-16T11:57:53.282Z,33.88
2023-04-16T11:59:17.956Z,33.80
2023-04-16T12:00:24.363Z,33.77
2023-04-16T12:01:27.386Z,34.06
2023-04-16T12:02:41.209Z,33.88
2023-04-16T12:03:49.119Z,33.93
2023-04-16T12:04:51.865Z,33.80
2023-04-16T12:05:54.235Z,33.67
2023-04-16T12:07:09.706Z,33.85
2023-04-16T12:08:13.176Z,33.84
2023-04-16T12:09:27.495Z,33.61
2023-04-16T12:10:31.102Z,33.71
2023-04-16T12:11:40.738Z,33.64
2023-04-16T12:12:43.766Z,33.75
2023-04-16T12:14:10.113Z,33.74
2023-04-16T12:15:12.483Z,33.65
2023-04-16T12:16:20.265Z,33.85
2023-04-16T12:17:23.101Z,33.87
2023-04-16T12:18:27.169Z,33.86
2023-04-16T12:19:30.344Z,33.67
2023-04-16T12:20:41.896Z,33.79
2023-04-16T12:21:48.805Z,33.73
2023-04-16T12:22:53.153Z,33.80
2023-04-16T12:23:55.559Z,33.88
2023-04-16T12:25:03.184Z,33.90
2023-04-16T12:26:10.983Z,33.94
2023-04-16T12:27:13.331Z,33.95
2023-04-16T12:28:16.542Z,33.72
2023-04-16T12:29:20.574Z,33.71
2023-04-16T12:30:25.037Z,33.62
2023-04-16T12:31:39.584Z,33.71
2023-04-16T12:32:49.943Z,33.61
2023-04-16T12:34:04.156Z,33.62
2023-04-16T12:35:06.718Z,33.72
2023-04-16T12:36:19.676Z,33.67
2023-04-16T12:37:22.215Z,33.72
2023-04-16T12:38:25.815Z,33.79
2023-04-16T12:39:28.308Z,33.73
2023-04-16T12:40:30.760Z,33.71
2023-04-16T12:41:34.254Z,33.83
2023-04-16T12:42:36.670Z,33.89
2023-04-16T12:43:39.247Z,33.89
2023-04-16T12:44:41.592Z,33.73
2023-04-16T12:45:44.584Z,33.80
2023-04-16T12:46:47.008Z,33.66
2023-04-16T12:47:50.711Z,34.02
2023-04-16T12:48:53.004Z,33.90
2023-04-16T12:49:57.989Z,33.65
2023-04-16T12:51:00.640Z,33.69
2023-04-16T12:52:03.761Z,33.79
2023-04-16T12:53:06.319Z,33.75
2023-04-16T12:54:08.756Z,33.91
2023-04-16T12:55:11.722Z,33.94
2023-04-16T12:56:14.100Z,34.04
2023-04-16T12:57:16.664Z,34.26
2023-04-16T12:58:19.192Z,33.93
2023-04-16T12:59:21.436Z,34.07
2023-04-16T13:00:23.731Z,33.85
2023-04-16T13:01:26.083Z,33.93
2023-04-16T13:02:28.801Z,33.83
2023-04-16T13:03:31.341Z,33.88
2023-04-16T13:04:33.983Z,34.04
2023-04-16T13:05:36.765Z,34.06
2023-04-16T13:06:40.051Z,33.93
2023-04-16T13:07:42.782Z,33.95
2023-04-16T13:08:45.944Z,34.09
2023-04-16T13:09:48.525Z,34.00
2023-04-16T13:10:51.046Z,33.94
2023-04-16T13:11:53.733Z,34.04
2023-04-16T13:12:56.013Z,34.12
2023-04-16T13:13:58.662Z,33.98
2023-04-16T13:15:01.069Z,34.09
2023-04-16T13:16:06.544Z,34.14
2023-04-16T13:17:09.212Z,34.02
2023-04-16T13:18:11.936Z,34.05
2023-04-16T13:19:15.903Z,34.14
2023-04-16T13:20:18.220Z,33.97
2023-04-16T13:21:20.644Z,34.13
2023-04-16T13:22:23.303Z,34.09
2023-04-16T13:23:26.051Z,34.16
2023-04-16T13:24:28.839Z,34.15
2023-04-16T13:25:31.806Z,34.16
2023-04-16T13:26:34.396Z,34.19
2023-04-16T13:27:36.634Z,34.00
2023-04-16T13:28:38.875Z,34.16
2023-04-16T13:29:41.159Z,34.19
2023-04-16T13:30:44.150Z,34.27
2023-04-16T13:31:46.857Z,34.18
2023-04-16T13:32:49.372Z,34.32
2023-04-16T13:33:51.916Z,34.08
2023-04-16T13:34:54.262Z,34.25
2023-04-16T13:35:56.486Z,34.43
2023-04-16T13:36:58.751Z,34.39